Friedman Memorial Airport
KSUN : now visible

Airfield :











YOU CAN JOIN US ON...

 
LOGIN :

Register | Disclaimer

   EN    FR    IT 

 









Legend :    VFR   Marginal VFR   IFR   Intensive IFR   Very Intensive IFR
Visi :
Ceiling :
>= 8 km
>= 3000ft
5 to 8 km
1000 to 3000 ft
1500m to 5 km
500 to 1000 ft
800 to 1500m
200 to 500 ft
< 800m
< 200 ft
Symbols :   Thunderstorms  Fog  Heavy snow  Heavy precipitations  Wind > 20 kt







- Airport Elevation : 5318 ft


KSUN - Friedman Memorial

CURRENT METAR :
  • 220147Z 13005KT 10SM SCT090 13/04 A3012

EXPIRED METARs :
  • 220049Z 20005KT 10SM SCT090 14/03 A3011

TAF KSUN
Valid from the 22 at 00:00 until the 23 at 06:00 UTC


212321Z 2200/2306 24006KT P6SM SCT050 BKN080
FM220400 31007KT P6SM SCT060 SCT110
FM221800 15005KT P6SM SCT100 BKN150
FM230400 31007KT P6SM BKN100 AMD LTD TO CLD VIS AND WIND 2205/2213
No reported NOTAMs for that airfield.



MET'MAP, your aeronautical weather chart ! - Copyright ORBIFLY December 2007 - Disclaimer

ORBIFLY MET'MAP TEAM :

Programming & Development : Alexandra Zaïnal
Concept & Development : Baudouin d'Aumeries
Co-Development & Prog : Marc-Olivier Méhu
Technical & hardware support : Manuel Goepfert

Contact : metmap@orbifly.com




SOURCES & CREDITS :

   NOAA       Earth
Advisory